sensor_id;sensor_type;location;lat;lon;timestamp;P1;durP1;ratioP1;P2;durP2;ratioP2
9449;SDS011;4763;48.370;10.874;2022-12-11T00:00:02;19.27;;;11.70;;
9449;SDS011;4763;48.370;10.874;2022-12-11T00:02:32;23.77;;;13.57;;
9449;SDS011;4763;48.370;10.874;2022-12-11T00:05:00;22.73;;;13.40;;
9449;SDS011;4763;48.370;10.874;2022-12-11T00:07:28;21.93;;;12.53;;
9449;SDS011;4763;48.370;10.874;2022-12-11T00:09:55;22.90;;;13.10;;
9449;SDS011;4763;48.370;10.874;2022-12-11T00:12:22;22.50;;;12.80;;
9449;SDS011;4763;48.370;10.874;2022-12-11T00:14:49;19.23;;;11.13;;
9449;SDS011;4763;48.370;10.874;2022-12-11T00:17:16;25.10;;;12.60;;
9449;SDS011;4763;48.370;10.874;2022-12-11T00:19:45;24.33;;;14.27;;
9449;SDS011;4763;48.370;10.874;2022-12-11T00:22:12;21.77;;;13.03;;
9449;SDS011;4763;48.370;10.874;2022-12-11T00:24:39;19.03;;;11.80;;
9449;SDS011;4763;48.370;10.874;2022-12-11T00:27:06;22.53;;;13.00;;
9449;SDS011;4763;48.370;10.874;2022-12-11T00:29:33;22.57;;;12.83;;
9449;SDS011;4763;48.370;10.874;2022-12-11T00:32:00;19.47;;;11.37;;
9449;SDS011;4763;48.370;10.874;2022-12-11T00:34:27;19.83;;;12.23;;
9449;SDS011;4763;48.370;10.874;2022-12-11T00:36:56;20.77;;;12.23;;
9449;SDS011;4763;48.370;10.874;2022-12-11T00:39:24;22.33;;;13.27;;
9449;SDS011;4763;48.370;10.874;2022-12-11T00:41:51;21.27;;;13.17;;
9449;SDS011;4763;48.370;10.874;2022-12-11T00:44:18;22.13;;;14.30;;
9449;SDS011;4763;48.370;10.874;2022-12-11T00:46:45;26.47;;;14.50;;
9449;SDS011;4763;48.370;10.874;2022-12-11T00:49:12;21.50;;;12.63;;
9449;SDS011;4763;48.370;10.874;2022-12-11T00:51:39;23.00;;;13.10;;
9449;SDS011;4763;48.370;10.874;2022-12-11T00:54:07;24.10;;;12.10;;
9449;SDS011;4763;48.370;10.874;2022-12-11T00:56:36;20.60;;;12.17;;
9449;SDS011;4763;48.370;10.874;2022-12-11T00:59:03;20.83;;;12.03;;
9449;SDS011;4763;48.370;10.874;2022-12-11T01:01:30;20.77;;;11.97;;
9449;SDS011;4763;48.370;10.874;2022-12-11T01:03:57;22.63;;;12.47;;
9449;SDS011;4763;48.370;10.874;2022-12-11T01:06:24;21.37;;;13.03;;
9449;SDS011;4763;48.370;10.874;2022-12-11T01:08:53;25.83;;;13.77;;
9449;SDS011;4763;48.370;10.874;2022-12-11T01:11:36;20.73;;;11.53;;
9449;SDS011;4763;48.370;10.874;2022-12-11T01:14:03;21.33;;;13.20;;
9449;SDS011;4763;48.370;10.874;2022-12-11T01:16:30;23.17;;;12.80;;
9449;SDS011;4763;48.370;10.874;2022-12-11T01:18:57;19.23;;;11.80;;
9449;SDS011;4763;48.370;10.874;2022-12-11T01:21:24;23.30;;;14.70;;
9449;SDS011;4763;48.370;10.874;2022-12-11T01:23:51;23.77;;;13.50;;
9449;SDS011;4763;48.370;10.874;2022-12-11T01:26:18;22.20;;;13.33;;
9449;SDS011;4763;48.370;10.874;2022-12-11T01:28:49;20.50;;;12.33;;
9449;SDS011;4763;48.370;10.874;2022-12-11T01:31:16;22.00;;;12.63;;
9449;SDS011;4763;48.370;10.874;2022-12-11T01:33:44;22.37;;;13.77;;
9449;SDS011;4763;48.370;10.874;2022-12-11T01:36:12;21.37;;;12.20;;
9449;SDS011;4763;48.370;10.874;2022-12-11T01:38:40;23.40;;;13.37;;
9449;SDS011;4763;48.370;10.874;2022-12-11T01:41:08;21.93;;;12.87;;
9449;SDS011;4763;48.370;10.874;2022-12-11T01:46:32;24.20;;;12.67;;
9449;SDS011;4763;48.370;10.874;2022-12-11T01:49:00;24.73;;;14.80;;
9449;SDS011;4763;48.370;10.874;2022-12-11T01:51:30;25.03;;;12.93;;
9449;SDS011;4763;48.370;10.874;2022-12-11T01:54:03;23.30;;;13.47;;
9449;SDS011;4763;48.370;10.874;2022-12-11T01:56:35;20.53;;;11.97;;
9449;SDS011;4763;48.370;10.874;2022-12-11T01:59:05;27.57;;;13.37;;
9449;SDS011;4763;48.370;10.874;2022-12-11T02:01:36;21.13;;;12.87;;
9449;SDS011;4763;48.370;10.874;2022-12-11T02:04:06;20.63;;;12.80;;
9449;SDS011;4763;48.370;10.874;2022-12-11T02:06:35;23.67;;;12.83;;
9449;SDS011;4763;48.370;10.874;2022-12-11T02:09:05;19.93;;;11.63;;
9449;SDS011;4763;48.370;10.874;2022-12-11T02:11:38;23.23;;;13.10;;
9449;SDS011;4763;48.370;10.874;2022-12-11T02:14:15;25.43;;;13.67;;
9449;SDS011;4763;48.370;10.874;2022-12-11T02:16:49;23.93;;;13.50;;
9449;SDS011;4763;48.370;10.874;2022-12-11T02:19:28;22.03;;;12.80;;
9449;SDS011;4763;48.370;10.874;2022-12-11T02:22:07;20.97;;;12.53;;
9449;SDS011;4763;48.370;10.874;2022-12-11T02:24:43;21.53;;;12.53;;
9449;SDS011;4763;48.370;10.874;2022-12-11T02:27:27;20.90;;;12.50;;
9449;SDS011;4763;48.370;10.874;2022-12-11T02:30:02;22.37;;;12.60;;
9449;SDS011;4763;48.370;10.874;2022-12-11T02:32:31;21.37;;;12.87;;
9449;SDS011;4763;48.370;10.874;2022-12-11T02:35:03;18.13;;;11.67;;
9449;SDS011;4763;48.370;10.874;2022-12-11T02:37:36;21.33;;;11.97;;
9449;SDS011;4763;48.370;10.874;2022-12-11T02:40:07;24.43;;;12.17;;
9449;SDS011;4763;48.370;10.874;2022-12-11T02:42:37;23.23;;;12.83;;
9449;SDS011;4763;48.370;10.874;2022-12-11T02:45:09;24.20;;;12.80;;
9449;SDS011;4763;48.370;10.874;2022-12-11T02:47:37;23.53;;;13.53;;
9449;SDS011;4763;48.370;10.874;2022-12-11T02:50:08;21.57;;;12.97;;
9449;SDS011;4763;48.370;10.874;2022-12-11T02:52:38;20.43;;;12.20;;
9449;SDS011;4763;48.370;10.874;2022-12-11T02:55:08;19.00;;;11.50;;
9449;SDS011;4763;48.370;10.874;2022-12-11T02:57:38;23.03;;;13.53;;
9449;SDS011;4763;48.370;10.874;2022-12-11T03:00:11;25.57;;;14.57;;
9449;SDS011;4763;48.370;10.874;2022-12-11T03:02:40;20.87;;;12.23;;
9449;SDS011;4763;48.370;10.874;2022-12-11T03:05:08;23.33;;;12.53;;
9449;SDS011;4763;48.370;10.874;2022-12-11T03:07:37;22.97;;;13.50;;
9449;SDS011;4763;48.370;10.874;2022-12-11T03:10:06;22.23;;;12.93;;
9449;SDS011;4763;48.370;10.874;2022-12-11T03:12:35;20.73;;;12.43;;
9449;SDS011;4763;48.370;10.874;2022-12-11T03:15:05;20.30;;;12.23;;
9449;SDS011;4763;48.370;10.874;2022-12-11T03:17:37;24.00;;;12.80;;
9449;SDS011;4763;48.370;10.874;2022-12-11T03:20:10;24.03;;;13.00;;
9449;SDS011;4763;48.370;10.874;2022-12-11T03:22:43;21.13;;;12.57;;
9449;SDS011;4763;48.370;10.874;2022-12-11T03:25:15;21.03;;;12.20;;
9449;SDS011;4763;48.370;10.874;2022-12-11T03:27:46;26.13;;;13.97;;
9449;SDS011;4763;48.370;10.874;2022-12-11T03:30:19;21.20;;;12.20;;
9449;SDS011;4763;48.370;10.874;2022-12-11T03:32:49;24.90;;;14.33;;
9449;SDS011;4763;48.370;10.874;2022-12-11T03:35:22;21.07;;;11.93;;
9449;SDS011;4763;48.370;10.874;2022-12-11T03:37:52;22.07;;;12.47;;
9449;SDS011;4763;48.370;10.874;2022-12-11T03:40:23;21.10;;;13.63;;
9449;SDS011;4763;48.370;10.874;2022-12-11T03:42:52;24.20;;;13.63;;
9449;SDS011;4763;48.370;10.874;2022-12-11T03:45:22;20.37;;;12.50;;
9449;SDS011;4763;48.370;10.874;2022-12-11T03:47:52;21.97;;;12.27;;
9449;SDS011;4763;48.370;10.874;2022-12-11T03:50:21;23.50;;;13.40;;
9449;SDS011;4763;48.370;10.874;2022-12-11T03:52:51;24.53;;;12.10;;
9449;SDS011;4763;48.370;10.874;2022-12-11T03:55:18;23.87;;;12.57;;
9449;SDS011;4763;48.370;10.874;2022-12-11T03:57:47;21.97;;;12.17;;
9449;SDS011;4763;48.370;10.874;2022-12-11T04:00:15;19.67;;;11.97;;
9449;SDS011;4763;48.370;10.874;2022-12-11T04:02:44;20.70;;;12.10;;
9449;SDS011;4763;48.370;10.874;2022-12-11T04:05:32;22.87;;;13.10;;
9449;SDS011;4763;48.370;10.874;2022-12-11T04:07:59;19.00;;;11.90;;
9449;SDS011;4763;48.370;10.874;2022-12-11T04:10:26;20.10;;;12.27;;
9449;SDS011;4763;48.370;10.874;2022-12-11T04:12:53;20.53;;;11.53;;
9449;SDS011;4763;48.370;10.874;2022-12-11T04:15:20;20.53;;;12.80;;
9449;SDS011;4763;48.370;10.874;2022-12-11T04:17:46;22.90;;;12.17;;
9449;SDS011;4763;48.370;10.874;2022-12-11T04:20:31;21.23;;;11.57;;
9449;SDS011;4763;48.370;10.874;2022-12-11T04:23:16;20.73;;;12.43;;
9449;SDS011;4763;48.370;10.874;2022-12-11T04:26:02;21.40;;;11.83;;
9449;SDS011;4763;48.370;10.874;2022-12-11T04:28:31;18.20;;;10.40;;
9449;SDS011;4763;48.370;10.874;2022-12-11T04:30:57;20.03;;;12.00;;
9449;SDS011;4763;48.370;10.874;2022-12-11T04:33:24;19.07;;;11.13;;
9449;SDS011;4763;48.370;10.874;2022-12-11T04:35:53;20.17;;;12.73;;
9449;SDS011;4763;48.370;10.874;2022-12-11T04:38:19;19.30;;;11.43;;
9449;SDS011;4763;48.370;10.874;2022-12-11T04:40:46;20.67;;;11.63;;
9449;SDS011;4763;48.370;10.874;2022-12-11T04:43:13;17.83;;;11.43;;
9449;SDS011;4763;48.370;10.874;2022-12-11T04:45:40;19.87;;;11.90;;
9449;SDS011;4763;48.370;10.874;2022-12-11T04:48:07;21.47;;;11.77;;
9449;SDS011;4763;48.370;10.874;2022-12-11T04:50:34;18.60;;;10.83;;
9449;SDS011;4763;48.370;10.874;2022-12-11T04:53:02;20.53;;;12.27;;
9449;SDS011;4763;48.370;10.874;2022-12-11T04:55:28;15.83;;;11.13;;
9449;SDS011;4763;48.370;10.874;2022-12-11T04:57:55;19.30;;;11.97;;
9449;SDS011;4763;48.370;10.874;2022-12-11T05:00:22;21.97;;;12.20;;
9449;SDS011;4763;48.370;10.874;2022-12-11T05:02:49;17.17;;;11.30;;
9449;SDS011;4763;48.370;10.874;2022-12-11T05:05:16;20.53;;;11.33;;
9449;SDS011;4763;48.370;10.874;2022-12-11T05:07:43;21.03;;;12.30;;
9449;SDS011;4763;48.370;10.874;2022-12-11T05:10:11;21.53;;;12.43;;
9449;SDS011;4763;48.370;10.874;2022-12-11T05:12:38;21.23;;;11.83;;
9449;SDS011;4763;48.370;10.874;2022-12-11T05:15:05;20.07;;;12.67;;
9449;SDS011;4763;48.370;10.874;2022-12-11T05:17:32;24.30;;;13.07;;
9449;SDS011;4763;48.370;10.874;2022-12-11T05:19:59;22.27;;;11.97;;
9449;SDS011;4763;48.370;10.874;2022-12-11T05:22:26;22.33;;;12.43;;
9449;SDS011;4763;48.370;10.874;2022-12-11T05:24:55;21.20;;;11.67;;
9449;SDS011;4763;48.370;10.874;2022-12-11T05:27:23;22.70;;;12.20;;
9449;SDS011;4763;48.370;10.874;2022-12-11T05:29:50;19.93;;;11.83;;
9449;SDS011;4763;48.370;10.874;2022-12-11T05:32:16;22.07;;;13.23;;
9449;SDS011;4763;48.370;10.874;2022-12-11T05:34:43;22.60;;;12.13;;
9449;SDS011;4763;48.370;10.874;2022-12-11T05:37:10;21.97;;;11.93;;
9449;SDS011;4763;48.370;10.874;2022-12-11T05:39:37;23.43;;;11.33;;
9449;SDS011;4763;48.370;10.874;2022-12-11T05:42:04;23.63;;;12.93;;
9449;SDS011;4763;48.370;10.874;2022-12-11T05:44:32;19.77;;;12.37;;
9449;SDS011;4763;48.370;10.874;2022-12-11T05:46:59;20.60;;;12.17;;
9449;SDS011;4763;48.370;10.874;2022-12-11T05:49:25;21.93;;;12.70;;
9449;SDS011;4763;48.370;10.874;2022-12-11T05:51:52;21.27;;;13.03;;
9449;SDS011;4763;48.370;10.874;2022-12-11T05:54:19;20.37;;;12.30;;
9449;SDS011;4763;48.370;10.874;2022-12-11T05:56:48;19.40;;;11.67;;
9449;SDS011;4763;48.370;10.874;2022-12-11T05:59:15;24.20;;;13.20;;
9449;SDS011;4763;48.370;10.874;2022-12-11T06:01:45;24.93;;;12.67;;
9449;SDS011;4763;48.370;10.874;2022-12-11T06:04:11;22.03;;;12.93;;
9449;SDS011;4763;48.370;10.874;2022-12-11T06:06:39;21.93;;;12.93;;
9449;SDS011;4763;48.370;10.874;2022-12-11T06:09:10;20.90;;;12.90;;
9449;SDS011;4763;48.370;10.874;2022-12-11T06:11:38;24.57;;;12.80;;
9449;SDS011;4763;48.370;10.874;2022-12-11T06:14:05;22.53;;;13.17;;
9449;SDS011;4763;48.370;10.874;2022-12-11T06:16:32;24.17;;;14.37;;
9449;SDS011;4763;48.370;10.874;2022-12-11T06:19:00;19.43;;;12.67;;
9449;SDS011;4763;48.370;10.874;2022-12-11T06:21:27;19.03;;;11.33;;
9449;SDS011;4763;48.370;10.874;2022-12-11T06:23:56;23.57;;;11.53;;
9449;SDS011;4763;48.370;10.874;2022-12-11T06:26:24;21.00;;;12.27;;
9449;SDS011;4763;48.370;10.874;2022-12-11T06:28:51;19.17;;;11.50;;
9449;SDS011;4763;48.370;10.874;2022-12-11T06:31:18;18.47;;;11.83;;
9449;SDS011;4763;48.370;10.874;2022-12-11T06:33:46;23.00;;;10.63;;
9449;SDS011;4763;48.370;10.874;2022-12-11T06:36:15;21.60;;;11.47;;
9449;SDS011;4763;48.370;10.874;2022-12-11T06:38:43;20.37;;;11.83;;
9449;SDS011;4763;48.370;10.874;2022-12-11T06:41:10;24.27;;;13.73;;
9449;SDS011;4763;48.370;10.874;2022-12-11T06:43:38;22.27;;;13.47;;
9449;SDS011;4763;48.370;10.874;2022-12-11T06:46:07;22.50;;;12.00;;
9449;SDS011;4763;48.370;10.874;2022-12-11T06:48:36;20.53;;;12.87;;
9449;SDS011;4763;48.370;10.874;2022-12-11T06:51:04;20.50;;;12.70;;
9449;SDS011;4763;48.370;10.874;2022-12-11T06:53:33;22.83;;;13.13;;
9449;SDS011;4763;48.370;10.874;2022-12-11T06:56:01;19.93;;;13.00;;
9449;SDS011;4763;48.370;10.874;2022-12-11T06:58:28;20.43;;;12.80;;
9449;SDS011;4763;48.370;10.874;2022-12-11T07:00:55;21.23;;;11.70;;
9449;SDS011;4763;48.370;10.874;2022-12-11T07:03:22;23.43;;;13.67;;
9449;SDS011;4763;48.370;10.874;2022-12-11T07:05:49;22.20;;;13.03;;
9449;SDS011;4763;48.370;10.874;2022-12-11T07:08:16;25.93;;;15.10;;
9449;SDS011;4763;48.370;10.874;2022-12-11T07:10:44;24.13;;;14.43;;
9449;SDS011;4763;48.370;10.874;2022-12-11T07:13:11;28.77;;;16.60;;
9449;SDS011;4763;48.370;10.874;2022-12-11T07:15:38;27.40;;;14.63;;
9449;SDS011;4763;48.370;10.874;2022-12-11T07:18:04;27.80;;;15.73;;
9449;SDS011;4763;48.370;10.874;2022-12-11T07:20:31;28.17;;;15.87;;
9449;SDS011;4763;48.370;10.874;2022-12-11T07:22:58;25.47;;;14.00;;
9449;SDS011;4763;48.370;10.874;2022-12-11T07:25:25;28.23;;;15.07;;
9449;SDS011;4763;48.370;10.874;2022-12-11T07:27:53;23.60;;;14.13;;
9449;SDS011;4763;48.370;10.874;2022-12-11T07:30:20;25.77;;;14.87;;
9449;SDS011;4763;48.370;10.874;2022-12-11T07:32:47;26.10;;;13.77;;
9449;SDS011;4763;48.370;10.874;2022-12-11T07:35:13;23.77;;;14.37;;
9449;SDS011;4763;48.370;10.874;2022-12-11T07:37:40;23.87;;;14.07;;
9449;SDS011;4763;48.370;10.874;2022-12-11T07:40:10;21.77;;;12.80;;
9449;SDS011;4763;48.370;10.874;2022-12-11T07:42:38;24.73;;;14.43;;
9449;SDS011;4763;48.370;10.874;2022-12-11T07:45:07;21.87;;;13.13;;
9449;SDS011;4763;48.370;10.874;2022-12-11T07:47:34;24.87;;;14.43;;
9449;SDS011;4763;48.370;10.874;2022-12-11T07:50:01;30.70;;;16.03;;
9449;SDS011;4763;48.370;10.874;2022-12-11T07:52:29;23.23;;;13.80;;
9449;SDS011;4763;48.370;10.874;2022-12-11T07:54:57;23.67;;;15.00;;
9449;SDS011;4763;48.370;10.874;2022-12-11T07:57:24;23.80;;;14.87;;
9449;SDS011;4763;48.370;10.874;2022-12-11T07:59:52;23.63;;;14.20;;
9449;SDS011;4763;48.370;10.874;2022-12-11T08:02:20;24.50;;;14.70;;
9449;SDS011;4763;48.370;10.874;2022-12-11T08:04:47;26.40;;;15.70;;
9449;SDS011;4763;48.370;10.874;2022-12-11T08:07:15;24.73;;;15.07;;
9449;SDS011;4763;48.370;10.874;2022-12-11T08:09:43;21.07;;;13.93;;
9449;SDS011;4763;48.370;10.874;2022-12-11T08:12:11;27.33;;;18.20;;
9449;SDS011;4763;48.370;10.874;2022-12-11T08:14:38;28.70;;;17.17;;
9449;SDS011;4763;48.370;10.874;2022-12-11T08:17:05;86.37;;;42.53;;
9449;SDS011;4763;48.370;10.874;2022-12-11T08:19:33;39.47;;;21.83;;
9449;SDS011;4763;48.370;10.874;2022-12-11T08:22:00;32.33;;;19.53;;
9449;SDS011;4763;48.370;10.874;2022-12-11T08:24:27;26.80;;;17.40;;
9449;SDS011;4763;48.370;10.874;2022-12-11T08:26:53;25.50;;;15.53;;
9449;SDS011;4763;48.370;10.874;2022-12-11T08:29:20;27.80;;;14.47;;
9449;SDS011;4763;48.370;10.874;2022-12-11T08:31:47;22.57;;;13.70;;
9449;SDS011;4763;48.370;10.874;2022-12-11T08:34:14;27.27;;;14.73;;
9449;SDS011;4763;48.370;10.874;2022-12-11T08:36:42;22.80;;;13.00;;
9449;SDS011;4763;48.370;10.874;2022-12-11T08:39:09;23.43;;;13.43;;
9449;SDS011;4763;48.370;10.874;2022-12-11T08:41:36;23.33;;;13.83;;
9449;SDS011;4763;48.370;10.874;2022-12-11T08:44:03;22.90;;;13.07;;
9449;SDS011;4763;48.370;10.874;2022-12-11T08:46:30;23.63;;;14.07;;
9449;SDS011;4763;48.370;10.874;2022-12-11T08:48:57;22.33;;;13.63;;
9449;SDS011;4763;48.370;10.874;2022-12-11T08:51:25;23.13;;;13.93;;
9449;SDS011;4763;48.370;10.874;2022-12-11T08:53:54;23.03;;;14.03;;
9449;SDS011;4763;48.370;10.874;2022-12-11T08:56:22;20.83;;;12.43;;
9449;SDS011;4763;48.370;10.874;2022-12-11T08:58:50;25.13;;;15.37;;
9449;SDS011;4763;48.370;10.874;2022-12-11T09:01:18;29.47;;;13.93;;
9449;SDS011;4763;48.370;10.874;2022-12-11T09:03:46;24.40;;;13.27;;
9449;SDS011;4763;48.370;10.874;2022-12-11T09:06:14;22.93;;;12.70;;
9449;SDS011;4763;48.370;10.874;2022-12-11T09:08:43;21.83;;;12.77;;
9449;SDS011;4763;48.370;10.874;2022-12-11T09:11:13;22.53;;;13.47;;
9449;SDS011;4763;48.370;10.874;2022-12-11T09:13:42;23.07;;;11.97;;
9449;SDS011;4763;48.370;10.874;2022-12-11T09:16:10;18.07;;;12.07;;
9449;SDS011;4763;48.370;10.874;2022-12-11T09:18:38;22.90;;;12.60;;
9449;SDS011;4763;48.370;10.874;2022-12-11T09:21:12;18.47;;;11.73;;
9449;SDS011;4763;48.370;10.874;2022-12-11T09:23:41;22.33;;;12.90;;
9449;SDS011;4763;48.370;10.874;2022-12-11T09:26:21;23.10;;;13.90;;
9449;SDS011;4763;48.370;10.874;2022-12-11T09:28:52;19.90;;;12.63;;
9449;SDS011;4763;48.370;10.874;2022-12-11T09:31:20;20.83;;;12.93;;
9449;SDS011;4763;48.370;10.874;2022-12-11T09:33:49;16.47;;;11.00;;
9449;SDS011;4763;48.370;10.874;2022-12-11T09:36:17;17.77;;;10.73;;
9449;SDS011;4763;48.370;10.874;2022-12-11T09:38:44;21.57;;;12.50;;
9449;SDS011;4763;48.370;10.874;2022-12-11T09:41:20;19.93;;;10.40;;
9449;SDS011;4763;48.370;10.874;2022-12-11T09:43:57;20.73;;;11.07;;
9449;SDS011;4763;48.370;10.874;2022-12-11T09:46:30;17.90;;;11.30;;
9449;SDS011;4763;48.370;10.874;2022-12-11T09:48:58;15.70;;;9.50;;
9449;SDS011;4763;48.370;10.874;2022-12-11T09:51:27;15.93;;;10.20;;
9449;SDS011;4763;48.370;10.874;2022-12-11T09:54:00;15.93;;;10.50;;
9449;SDS011;4763;48.370;10.874;2022-12-11T09:56:30;16.43;;;10.10;;
9449;SDS011;4763;48.370;10.874;2022-12-11T09:59:01;17.40;;;10.27;;
9449;SDS011;4763;48.370;10.874;2022-12-11T10:01:39;18.43;;;10.83;;
9449;SDS011;4763;48.370;10.874;2022-12-11T10:04:14;20.27;;;11.33;;
9449;SDS011;4763;48.370;10.874;2022-12-11T10:07:00;17.53;;;11.50;;
9449;SDS011;4763;48.370;10.874;2022-12-11T10:09:36;19.63;;;11.73;;
9449;SDS011;4763;48.370;10.874;2022-12-11T10:12:19;20.90;;;11.67;;
9449;SDS011;4763;48.370;10.874;2022-12-11T10:15:04;15.03;;;10.07;;
9449;SDS011;4763;48.370;10.874;2022-12-11T10:17:42;14.97;;;9.67;;
9449;SDS011;4763;48.370;10.874;2022-12-11T10:20:15;13.87;;;8.90;;
9449;SDS011;4763;48.370;10.874;2022-12-11T10:22:45;16.87;;;10.10;;
9449;SDS011;4763;48.370;10.874;2022-12-11T10:25:15;18.60;;;11.40;;
9449;SDS011;4763;48.370;10.874;2022-12-11T10:27:50;16.87;;;10.90;;
9449;SDS011;4763;48.370;10.874;2022-12-11T10:30:18;12.43;;;9.13;;
9449;SDS011;4763;48.370;10.874;2022-12-11T10:32:49;14.60;;;9.83;;
9449;SDS011;4763;48.370;10.874;2022-12-11T10:35:27;15.30;;;10.20;;
9449;SDS011;4763;48.370;10.874;2022-12-11T10:38:00;16.53;;;9.50;;
9449;SDS011;4763;48.370;10.874;2022-12-11T10:40:38;13.73;;;8.90;;
9449;SDS011;4763;48.370;10.874;2022-12-11T10:43:09;13.90;;;9.23;;
9449;SDS011;4763;48.370;10.874;2022-12-11T10:45:36;22.50;;;10.47;;
9449;SDS011;4763;48.370;10.874;2022-12-11T10:48:04;12.50;;;8.13;;
9449;SDS011;4763;48.370;10.874;2022-12-11T10:50:31;10.70;;;7.67;;
9449;SDS011;4763;48.370;10.874;2022-12-11T10:52:58;13.70;;;7.97;;
9449;SDS011;4763;48.370;10.874;2022-12-11T10:55:29;13.67;;;8.13;;
9449;SDS011;4763;48.370;10.874;2022-12-11T10:58:04;10.53;;;6.73;;
9449;SDS011;4763;48.370;10.874;2022-12-11T11:00:34;9.63;;;6.17;;
9449;SDS011;4763;48.370;10.874;2022-12-11T11:03:02;10.63;;;5.43;;
9449;SDS011;4763;48.370;10.874;2022-12-11T11:05:32;9.00;;;6.03;;
9449;SDS011;4763;48.370;10.874;2022-12-11T11:08:09;9.80;;;6.93;;
9449;SDS011;4763;48.370;10.874;2022-12-11T11:10:48;15.87;;;8.57;;
9449;SDS011;4763;48.370;10.874;2022-12-11T11:13:16;11.80;;;7.60;;
9449;SDS011;4763;48.370;10.874;2022-12-11T11:15:47;17.93;;;8.67;;
9449;SDS011;4763;48.370;10.874;2022-12-11T11:18:15;20.90;;;12.63;;
9449;SDS011;4763;48.370;10.874;2022-12-11T11:20:50;43.67;;;26.13;;
9449;SDS011;4763;48.370;10.874;2022-12-11T11:23:17;13.87;;;8.83;;
9449;SDS011;4763;48.370;10.874;2022-12-11T11:25:49;28.97;;;18.50;;
9449;SDS011;4763;48.370;10.874;2022-12-11T11:28:21;14.97;;;9.83;;
9449;SDS011;4763;48.370;10.874;2022-12-11T11:30:57;16.60;;;10.23;;
9449;SDS011;4763;48.370;10.874;2022-12-11T11:33:28;13.03;;;8.93;;
9449;SDS011;4763;48.370;10.874;2022-12-11T11:35:57;13.03;;;9.27;;
9449;SDS011;4763;48.370;10.874;2022-12-11T11:38:27;13.27;;;9.07;;
9449;SDS011;4763;48.370;10.874;2022-12-11T11:41:00;14.70;;;8.60;;
9449;SDS011;4763;48.370;10.874;2022-12-11T11:43:39;15.07;;;9.33;;
9449;SDS011;4763;48.370;10.874;2022-12-11T11:46:13;14.13;;;8.83;;
9449;SDS011;4763;48.370;10.874;2022-12-11T11:48:44;11.20;;;7.97;;
9449;SDS011;4763;48.370;10.874;2022-12-11T11:51:18;13.20;;;8.50;;
9449;SDS011;4763;48.370;10.874;2022-12-11T11:53:50;12.97;;;8.23;;
9449;SDS011;4763;48.370;10.874;2022-12-11T11:56:21;13.87;;;9.33;;
9449;SDS011;4763;48.370;10.874;2022-12-11T11:58:59;11.83;;;7.50;;
9449;SDS011;4763;48.370;10.874;2022-12-11T12:01:31;16.53;;;11.77;;
9449;SDS011;4763;48.370;10.874;2022-12-11T12:03:59;21.97;;;13.30;;
9449;SDS011;4763;48.370;10.874;2022-12-11T12:06:31;15.17;;;9.43;;
9449;SDS011;4763;48.370;10.874;2022-12-11T12:09:06;17.27;;;9.60;;
9449;SDS011;4763;48.370;10.874;2022-12-11T12:11:54;15.70;;;9.53;;
9449;SDS011;4763;48.370;10.874;2022-12-11T12:14:29;20.03;;;13.03;;
9449;SDS011;4763;48.370;10.874;2022-12-11T12:17:05;14.27;;;8.80;;
9449;SDS011;4763;48.370;10.874;2022-12-11T12:19:42;11.03;;;8.27;;
9449;SDS011;4763;48.370;10.874;2022-12-11T12:22:18;15.27;;;8.47;;
9449;SDS011;4763;48.370;10.874;2022-12-11T12:24:55;10.77;;;7.67;;
9449;SDS011;4763;48.370;10.874;2022-12-11T12:27:33;13.80;;;8.37;;
9449;SDS011;4763;48.370;10.874;2022-12-11T12:30:07;10.13;;;7.17;;
9449;SDS011;4763;48.370;10.874;2022-12-11T12:32:39;10.40;;;7.53;;
9449;SDS011;4763;48.370;10.874;2022-12-11T12:35:15;12.20;;;7.73;;
9449;SDS011;4763;48.370;10.874;2022-12-11T12:37:52;12.20;;;7.63;;
9449;SDS011;4763;48.370;10.874;2022-12-11T12:40:25;11.83;;;8.27;;
9449;SDS011;4763;48.370;10.874;2022-12-11T12:42:59;11.73;;;7.40;;
9449;SDS011;4763;48.370;10.874;2022-12-11T12:45:40;11.83;;;7.93;;
9449;SDS011;4763;48.370;10.874;2022-12-11T12:48:16;10.53;;;6.90;;
9449;SDS011;4763;48.370;10.874;2022-12-11T12:50:43;11.03;;;7.33;;
9449;SDS011;4763;48.370;10.874;2022-12-11T12:53:15;15.50;;;7.17;;
9449;SDS011;4763;48.370;10.874;2022-12-11T12:55:45;12.70;;;8.70;;
9449;SDS011;4763;48.370;10.874;2022-12-11T12:58:23;14.33;;;8.67;;
9449;SDS011;4763;48.370;10.874;2022-12-11T13:00:52;15.40;;;8.53;;
9449;SDS011;4763;48.370;10.874;2022-12-11T13:03:21;15.53;;;8.90;;
9449;SDS011;4763;48.370;10.874;2022-12-11T13:05:54;13.73;;;8.57;;
9449;SDS011;4763;48.370;10.874;2022-12-11T13:08:23;21.77;;;10.10;;
9449;SDS011;4763;48.370;10.874;2022-12-11T13:10:57;12.50;;;8.37;;
9449;SDS011;4763;48.370;10.874;2022-12-11T13:13:32;15.20;;;8.70;;
9449;SDS011;4763;48.370;10.874;2022-12-11T13:16:06;13.83;;;8.93;;
9449;SDS011;4763;48.370;10.874;2022-12-11T13:18:50;16.33;;;9.53;;
9449;SDS011;4763;48.370;10.874;2022-12-11T13:21:23;16.03;;;11.73;;
9449;SDS011;4763;48.370;10.874;2022-12-11T13:23:53;15.50;;;9.10;;
9449;SDS011;4763;48.370;10.874;2022-12-11T13:26:26;13.33;;;8.40;;
9449;SDS011;4763;48.370;10.874;2022-12-11T13:28:54;16.30;;;8.53;;
9449;SDS011;4763;48.370;10.874;2022-12-11T13:31:27;11.80;;;9.10;;
9449;SDS011;4763;48.370;10.874;2022-12-11T13:34:05;12.40;;;7.43;;
9449;SDS011;4763;48.370;10.874;2022-12-11T13:36:44;11.00;;;8.30;;
9449;SDS011;4763;48.370;10.874;2022-12-11T13:39:15;12.60;;;7.80;;
9449;SDS011;4763;48.370;10.874;2022-12-11T13:41:44;11.47;;;6.73;;
9449;SDS011;4763;48.370;10.874;2022-12-11T13:44:14;11.83;;;7.80;;
9449;SDS011;4763;48.370;10.874;2022-12-11T13:46:46;13.37;;;9.37;;
9449;SDS011;4763;48.370;10.874;2022-12-11T13:49:21;11.93;;;7.77;;
9449;SDS011;4763;48.370;10.874;2022-12-11T13:51:51;15.00;;;8.43;;
9449;SDS011;4763;48.370;10.874;2022-12-11T13:54:19;12.10;;;6.57;;
9449;SDS011;4763;48.370;10.874;2022-12-11T13:56:53;15.83;;;9.27;;
9449;SDS011;4763;48.370;10.874;2022-12-11T13:59:23;20.67;;;10.37;;
9449;SDS011;4763;48.370;10.874;2022-12-11T14:01:52;15.50;;;10.03;;
9449;SDS011;4763;48.370;10.874;2022-12-11T14:04:23;24.93;;;13.53;;
9449;SDS011;4763;48.370;10.874;2022-12-11T14:06:52;21.83;;;11.33;;
9449;SDS011;4763;48.370;10.874;2022-12-11T14:09:21;36.37;;;16.17;;
9449;SDS011;4763;48.370;10.874;2022-12-11T14:11:50;13.80;;;8.90;;
9449;SDS011;4763;48.370;10.874;2022-12-11T14:14:18;15.13;;;10.23;;
9449;SDS011;4763;48.370;10.874;2022-12-11T14:16:47;14.67;;;8.67;;
9449;SDS011;4763;48.370;10.874;2022-12-11T14:19:16;14.37;;;9.33;;
9449;SDS011;4763;48.370;10.874;2022-12-11T14:21:54;14.60;;;8.83;;
9449;SDS011;4763;48.370;10.874;2022-12-11T14:24:22;13.73;;;8.47;;
9449;SDS011;4763;48.370;10.874;2022-12-11T14:26:49;12.63;;;8.23;;
9449;SDS011;4763;48.370;10.874;2022-12-11T14:29:22;12.53;;;7.70;;
9449;SDS011;4763;48.370;10.874;2022-12-11T14:31:50;15.90;;;8.93;;
9449;SDS011;4763;48.370;10.874;2022-12-11T14:34:20;18.63;;;9.30;;
9449;SDS011;4763;48.370;10.874;2022-12-11T14:36:51;15.97;;;9.33;;
9449;SDS011;4763;48.370;10.874;2022-12-11T14:39:21;21.70;;;12.17;;
9449;SDS011;4763;48.370;10.874;2022-12-11T14:41:52;24.90;;;13.37;;
9449;SDS011;4763;48.370;10.874;2022-12-11T14:44:23;20.37;;;11.77;;
9449;SDS011;4763;48.370;10.874;2022-12-11T14:46:53;14.73;;;9.53;;
9449;SDS011;4763;48.370;10.874;2022-12-11T14:49:23;17.37;;;9.47;;
9449;SDS011;4763;48.370;10.874;2022-12-11T14:51:57;18.97;;;10.40;;
9449;SDS011;4763;48.370;10.874;2022-12-11T14:54:28;24.40;;;13.33;;
9449;SDS011;4763;48.370;10.874;2022-12-11T14:57:01;15.83;;;10.00;;